Time;durP1;ratioP1;P1;durP2;ratioP2;P2;SDS_P1;SDS_P2;PMS_P1;PMS_P2;Temp;Humidity;BMP_temperature;BMP_pressure;BME280_temperature;BME280_humidity;BME280_pressure;Samples;Min_cycle;Max_cycle;Signal;HPM_P1;HPM_P2
2021/04/30 00:00:09;;;;;;;18.33;9.67;;;;;;;9.28;100.00;95397.41;1040438;28;20024;-56
2021/04/30 00:00:40;;;;;;;11.02;8.85;;;;;;;9.32;100.00;95393.38;1040004;28;20503;-56
2021/04/30 00:01:10;;;;;;;9.83;7.73;;;;;;;9.34;100.00;95399.25;1040154;28;20037;-56
2021/04/30 00:01:41;;;;;;;12.27;8.40;;;;;;;9.33;100.00;95400.25;1040275;28;20108;-53
2021/04/30 00:02:11;;;;;;;11.93;8.87;;;;;;;9.31;100.00;95397.03;1040100;28;20102;-53
2021/04/30 00:02:42;;;;;;;15.23;8.90;;;;;;;9.30;100.00;95405.91;1040232;28;20013;-55
2021/04/30 00:03:12;;;;;;;12.10;9.40;;;;;;;9.32;100.00;95398.63;1040156;28;20029;-52
2021/04/30 00:03:43;;;;;;;13.33;9.63;;;;;;;9.33;100.00;95405.50;1040273;28;20045;-53
2021/04/30 00:04:13;;;;;;;13.33;9.80;;;;;;;9.32;100.00;95402.06;1039750;28;20021;-53
2021/04/30 00:04:43;;;;;;;12.07;9.27;;;;;;;9.30;100.00;95393.56;1040371;28;20166;-55
2021/04/30 00:05:14;;;;;;;11.77;8.73;;;;;;;9.33;100.00;95403.66;1040492;28;20026;-54
2021/04/30 00:05:45;;;;;;;15.93;9.73;;;;;;;9.34;100.00;95396.63;1040472;28;20037;-53
2021/04/30 00:06:15;;;;;;;12.80;9.23;;;;;;;9.32;100.00;95396.00;1040318;28;20025;-55
2021/04/30 00:06:45;;;;;;;12.63;9.63;;;;;;;9.30;100.00;95404.06;1040473;28;20392;-52
2021/04/30 00:07:16;;;;;;;12.33;8.97;;;;;;;9.31;100.00;95399.66;1040655;28;20070;-54
2021/04/30 00:07:46;;;;;;;14.50;9.23;;;;;;;9.25;100.00;95396.00;1040577;28;20060;-53
2021/04/30 00:08:17;;;;;;;14.63;9.50;;;;;;;9.25;100.00;95402.06;1039971;28;20083;-52
2021/04/30 00:08:47;;;;;;;14.27;9.10;;;;;;;9.29;100.00;95399.81;1039959;28;20024;-54
2021/04/30 00:09:18;;;;;;;13.73;9.17;;;;;;;9.23;100.00;95398.03;1035941;28;20025;-54
2021/04/30 00:09:48;;;;;;;11.40;9.07;;;;;;;9.27;100.00;95401.84;1035947;28;20022;-52
2021/04/30 00:10:19;;;;;;;15.63;9.43;;;;;;;9.30;100.00;95404.06;1040038;28;20074;-52
2021/04/30 00:10:49;;;;;;;12.57;9.23;;;;;;;9.28;100.00;95395.59;1035982;28;20124;-52
2021/04/30 00:11:20;;;;;;;12.87;8.97;;;;;;;9.23;100.00;95404.09;1040041;28;20021;-56
2021/04/30 00:11:50;;;;;;;14.73;9.00;;;;;;;9.18;100.00;95400.47;1040252;28;20383;-54
2021/04/30 00:12:21;;;;;;;11.77;9.03;;;;;;;9.16;100.00;95397.25;1040043;28;20033;-52
2021/04/30 00:12:52;;;;;;;12.30;9.03;;;;;;;9.20;100.00;95395.81;1039844;28;20021;-52
2021/04/30 00:13:22;;;;;;;12.43;9.20;;;;;;;9.17;100.00;95401.47;1040068;28;20108;-56
2021/04/30 00:13:52;;;;;;;13.50;9.30;;;;;;;9.18;100.00;95400.47;1040047;28;20100;-53
2021/04/30 00:14:23;;;;;;;13.30;9.70;;;;;;;9.19;100.00;95397.63;1039838;28;20021;-55
2021/04/30 00:14:53;;;;;;;14.97;9.47;;;;;;;9.20;100.00;95398.44;1040083;28;20021;-53
2021/04/30 00:15:24;;;;;;;13.53;9.13;;;;;;;9.15;100.00;95400.88;1040069;28;20506;-52
2021/04/30 00:15:54;;;;;;;12.77;9.40;;;;;;;9.15;100.00;95400.88;1040077;28;20455;-56
2021/04/30 00:16:25;;;;;;;12.57;8.63;;;;;;;9.17;100.00;95393.59;1040200;28;20029;-53
2021/04/30 00:16:55;;;;;;;10.43;9.13;;;;;;;9.19;100.00;95400.25;1040533;28;20447;-54
2021/04/30 00:17:25;;;;;;;13.47;9.30;;;;;;;9.21;100.00;95389.53;1040256;28;20399;-54
2021/04/30 00:17:56;;;;;;;12.90;8.80;;;;;;;9.24;100.00;95400.44;1040480;28;20021;-54
2021/04/30 00:18:26;;;;;;;13.00;9.10;;;;;;;9.30;100.00;95400.66;1040377;28;20032;-54
2021/04/30 00:18:57;;;;;;;14.93;9.17;;;;;;;9.33;100.00;95400.25;1040284;28;20036;-56
2021/04/30 00:19:27;;;;;;;13.10;9.73;;;;;;;9.31;100.00;95394.41;1040456;28;20048;-56
2021/04/30 00:19:58;;;;;;;14.23;9.57;;;;;;;9.31;100.00;95394.41;1040479;28;20518;-57
2021/04/30 00:20:29;;;;;;;13.17;9.50;;;;;;;9.34;100.00;95402.66;1040411;28;20096;-56
2021/04/30 00:21:00;;;;;;;14.93;9.10;;;;;;;9.32;100.00;95393.38;1040561;28;20029;-56
2021/04/30 00:21:31;;;;;;;15.60;9.40;;;;;;;9.37;100.00;95393.56;1040449;28;20014;-56
2021/04/30 00:22:02;;;;;;;15.13;9.00;;;;;;;9.37;100.00;95397.00;1040425;28;20352;-56
2021/04/30 00:22:32;;;;;;;13.20;9.60;;;;;;;9.35;100.00;95396.41;1044105;28;20070;-56
2021/04/30 00:23:03;;;;;;;13.20;8.73;;;;;;;9.33;100.00;95393.16;1044084;28;20025;-55
2021/04/30 00:23:34;;;;;;;13.30;9.50;;;;;;;9.33;100.00;95395.00;1039924;28;20022;-56
2021/04/30 00:24:06;;;;;;;14.32;8.90;;;;;;;9.36;100.00;95390.13;1035958;28;20022;-56
2021/04/30 00:24:36;;;;;;;14.57;8.73;;;;;;;9.37;100.00;95393.56;1035808;28;20101;-56
2021/04/30 00:25:07;;;;;;;11.90;9.23;;;;;;;9.34;100.00;95391.38;1036437;28;20030;-52
2021/04/30 00:25:39;;;;;;;14.23;8.83;;;;;;;9.33;100.00;95390.53;1040151;28;20396;-62
2021/04/30 00:26:19;;;;;;;15.38;9.48;;;;;;;9.35;100.00;95390.34;1040404;28;20028;-52
2021/04/30 00:26:49;;;;;;;13.77;9.10;;;;;;;9.35;100.00;95395.59;1040082;28;20390;-51
2021/04/30 00:27:20;;;;;;;11.93;9.40;;;;;;;9.28;100.00;95395.59;1039895;28;20033;-54
2021/04/30 00:27:50;;;;;;;15.00;10.10;;;;;;;9.22;100.00;95386.72;1040127;28;20413;-52
2021/04/30 00:28:21;;;;;;;13.57;9.43;;;;;;;9.24;100.00;95397.81;1040166;28;20025;-52
2021/04/30 00:28:52;;;;;;;12.00;9.70;;;;;;;9.23;100.00;95390.97;1036097;28;20033;-54
2021/04/30 00:29:22;;;;;;;15.83;10.53;;;;;;;9.25;100.00;95396.00;1040639;28;20105;-53
2021/04/30 00:29:53;;;;;;;12.63;10.07;;;;;;;9.30;100.00;95392.78;1040185;28;20064;-54
2021/04/30 00:30:23;;;;;;;13.03;8.97;;;;;;;9.32;100.00;95393.38;1040330;28;20021;-52
2021/04/30 00:30:54;;;;;;;16.20;9.87;;;;;;;9.34;100.00;95397.41;1040379;28;20045;-52
2021/04/30 00:31:24;;;;;;;12.53;9.20;;;;;;;9.31;100.00;95394.41;1040308;28;20070;-51
2021/04/30 00:31:55;;;;;;;13.60;9.70;;;;;;;9.31;100.00;95389.94;1039996;28;20475;-52
2021/04/30 00:32:25;;;;;;;15.13;9.60;;;;;;;9.33;100.00;95395.00;1036022;28;20041;-53
2021/04/30 00:32:56;;;;;;;13.20;9.30;;;;;;;9.30;100.00;95385.69;1036080;28;20057;-53
2021/04/30 00:33:27;;;;;;;12.37;9.60;;;;;;;9.30;100.00;95395.41;1036015;28;20022;-53
2021/04/30 00:33:58;;;;;;;13.45;9.60;;;;;;;9.30;100.00;95387.53;1028129;28;20425;-51
2021/04/30 00:34:28;;;;;;;12.93;9.57;;;;;;;9.28;100.00;95386.91;1031941;28;20014;-53
2021/04/30 00:35:02;;;;;;;12.80;9.53;;;;;;;9.27;100.00;95390.56;1032238;28;20472;-53
2021/04/30 00:35:33;;;;;;;16.55;8.55;;;;;;;9.27;100.00;95393.19;1036616;28;20022;-55
2021/04/30 00:36:03;;;;;;;16.00;9.03;;;;;;;9.30;100.00;95395.41;1040204;28;20021;-53
2021/04/30 00:36:34;;;;;;;12.50;9.53;;;;;;;9.34;100.00;95391.38;1039912;28;20049;-54
2021/04/30 00:37:04;;;;;;;12.07;9.40;;;;;;;9.30;100.00;95393.56;1039985;28;20456;-52
2021/04/30 00:37:38;;;;;;;16.40;9.40;;;;;;;9.31;100.00;95389.94;1039971;28;20124;-53
2021/04/30 00:38:08;;;;;;;13.90;9.82;;;;;;;9.29;100.00;95396.41;1040349;28;20479;-52
2021/04/30 00:38:38;;;;;;;12.33;9.33;;;;;;;9.24;100.00;95403.06;1035894;28;20042;-52
2021/04/30 00:39:09;;;;;;;16.70;9.23;;;;;;;9.28;100.00;95400.03;1035762;28;20041;-53
2021/04/30 00:39:39;;;;;;;13.80;9.50;;;;;;;9.33;100.00;95397.63;1036342;28;20029;-55
2021/04/30 00:40:10;;;;;;;12.87;8.87;;;;;;;9.31;100.00;95395.19;1031958;28;20445;-53
2021/04/30 00:40:41;;;;;;;12.37;8.53;;;;;;;9.35;100.00;95399.03;1039928;28;20111;-52
2021/04/30 00:41:11;;;;;;;12.67;9.13;;;;;;;9.34;100.00;95400.03;1039976;28;20471;-53
2021/04/30 00:41:42;;;;;;;14.00;9.63;;;;;;;9.32;100.00;95402.06;1039984;28;20017;-54
2021/04/30 00:42:15;;;;;;;13.13;9.35;;;;;;;9.30;100.00;95400.66;1040116;28;20022;-55
2021/04/30 00:42:45;;;;;;;12.10;8.77;;;;;;;9.25;100.00;95404.69;1040011;28;20017;-53
2021/04/30 00:43:16;;;;;;;14.10;9.57;;;;;;;9.27;100.00;95404.50;1040079;28;20041;-55
2021/04/30 00:43:46;;;;;;;14.50;9.57;;;;;;;9.18;100.00;95406.50;1032185;28;20146;-55
2021/04/30 00:44:17;;;;;;;14.63;9.83;;;;;;;9.23;100.00;95403.28;1035717;28;20101;-54
2021/04/30 00:44:47;;;;;;;15.33;9.10;;;;;;;9.23;100.00;95405.91;1035820;28;20490;-52
2021/04/30 00:45:19;;;;;;;12.60;10.07;;;;;;;9.32;100.00;95409.97;1035998;28;20105;-51
2021/04/30 00:45:52;;;;;;;12.27;9.25;;;;;;;9.31;100.00;95403.06;1039930;28;20556;-56
2021/04/30 00:46:23;;;;;;;14.63;9.85;;;;;;;9.19;100.00;95410.75;1039874;28;20478;-54
2021/04/30 00:46:54;;;;;;;13.47;9.23;;;;;;;9.17;100.00;95414.59;1035875;28;20068;-54
2021/04/30 00:47:39;;;;;;;12.30;9.47;;;;;;;9.12;100.00;95406.53;1036578;28;20014;-53
2021/04/30 00:48:10;;;;;;;14.02;9.52;;;;;;;9.15;100.00;95406.91;1040012;28;20430;-52
2021/04/30 00:48:41;;;;;;;13.77;9.55;;;;;;;9.20;100.00;95412.38;1039876;28;20136;-52
2021/04/30 00:49:12;;;;;;;13.83;9.20;;;;;;;9.16;100.00;95411.16;1039983;28;20081;-51
2021/04/30 00:49:42;;;;;;;11.88;9.30;;;;;;;9.05;100.00;95415.22;1035639;28;20013;-52
2021/04/30 00:50:13;;;;;;;15.77;9.40;;;;;;;9.05;100.00;95415.22;1036156;28;20014;-52
2021/04/30 00:50:44;;;;;;;12.77;10.03;;;;;;;9.03;100.00;95416.44;1039926;28;20112;-52
2021/04/30 00:51:14;;;;;;;13.10;9.40;;;;;;;9.02;100.00;95425.34;1039908;28;20045;-52
2021/04/30 00:51:44;;;;;;;12.93;9.37;;;;;;;9.08;100.00;95419.28;1040194;28;20028;-54
2021/04/30 00:52:15;;;;;;;12.93;9.10;;;;;;;9.06;100.00;95411.59;1040353;28;20371;-53
2021/04/30 00:52:45;;;;;;;13.00;10.03;;;;;;;9.11;100.00;95418.03;1039753;28;20029;-51
2021/04/30 00:53:16;;;;;;;12.40;9.67;;;;;;;9.13;100.00;95422.09;1035989;28;20029;-55
2021/04/30 00:53:46;;;;;;;11.97;9.57;;;;;;;9.13;100.00;95418.66;1035790;28;20133;-54
2021/04/30 00:54:17;;;;;;;14.47;10.60;;;;;;;8.98;100.00;95424.13;1035768;28;20361;-52
2021/04/30 00:54:48;;;;;;;16.73;10.40;;;;;;;8.95;100.00;95421.88;1039926;28;20063;-54
2021/04/30 00:55:18;;;;;;;15.63;10.57;;;;;;;8.99;100.00;95418.66;1040181;28;20530;-52
2021/04/30 00:55:49;;;;;;;12.00;10.00;;;;;;;8.99;100.00;95418.66;1039899;28;20017;-54
2021/04/30 00:56:20;;;;;;;14.27;9.87;;;;;;;9.02;100.00;95425.34;1039868;28;20056;-53
2021/04/30 00:56:51;;;;;;;15.48;10.20;;;;;;;9.00;100.00;95424.72;1035891;28;20423;-54
2021/04/30 00:57:22;;;;;;;13.07;10.23;;;;;;;9.02;100.00;95426.13;1036114;28;20033;-54
2021/04/30 00:57:57;;;;;;;12.90;9.95;;;;;;;9.09;100.00;95425.31;1040138;28;20025;-55
2021/04/30 00:58:27;;;;;;;12.48;10.02;;;;;;;9.14;100.00;95422.88;1036408;28;20030;-52
2021/04/30 00:59:00;;;;;;;14.07;9.63;;;;;;;9.12;100.00;95425.72;1036020;28;20492;-50
2021/04/30 00:59:30;;;;;;;13.82;9.65;;;;;;;9.12;100.00;95417.03;1035853;28;20045;-53
2021/04/30 01:00:01;;;;;;;13.57;10.23;;;;;;;9.08;100.00;95421.91;1032177;28;20022;-51
2021/04/30 01:00:34;;;;;;;12.20;10.17;;;;;;;9.13;100.00;95419.47;1031895;28;20042;-52
2021/04/30 01:01:04;;;;;;;14.48;10.20;;;;;;;9.07;100.00;95420.28;1031775;28;20022;-51
2021/04/30 01:01:35;;;;;;;14.70;10.23;;;;;;;8.98;100.00;95419.66;1032520;28;20425;-52
2021/04/30 01:02:05;;;;;;;15.00;10.83;;;;;;;9.01;100.00;95428.97;1039971;28;20041;-51
2021/04/30 01:02:36;;;;;;;12.60;9.87;;;;;;;9.05;100.00;95427.56;1035881;28;20128;-53
2021/04/30 01:03:07;;;;;;;14.70;10.47;;;;;;;9.03;100.00;95426.94;1027733;28;20019;-54
2021/04/30 01:03:38;;;;;;;13.65;10.25;;;;;;;9.00;100.00;95432.59;1027779;28;20034;-52
2021/04/30 01:04:08;;;;;;;14.70;11.20;;;;;;;9.07;100.00;95425.53;1031639;28;20057;-52
2021/04/30 01:04:39;;;;;;;16.23;10.67;;;;;;;9.08;100.00;95432.41;1031555;28;20053;-56
2021/04/30 01:05:10;;;;;;;15.73;10.80;;;;;;;9.11;100.00;95429.38;1031856;28;20062;-52
2021/04/30 01:05:40;;;;;;;15.13;11.03;;;;;;;9.13;100.00;95426.53;1032184;28;20018;-52
2021/04/30 01:06:11;;;;;;;13.90;10.93;;;;;;;9.03;100.00;95433.00;1040281;28;20439;-52
2021/04/30 01:06:41;;;;;;;15.73;10.53;;;;;;;8.96;100.00;95431.38;1035976;28;20061;-51
2021/04/30 01:07:12;;;;;;;17.97;11.20;;;;;;;8.97;100.00;95436.41;1040065;28;20384;-51
2021/04/30 01:07:43;;;;;;;13.70;10.60;;;;;;;9.02;100.00;95428.75;1039873;28;20079;-51
2021/04/30 01:08:13;;;;;;;14.43;11.00;;;;;;;9.03;100.00;95433.00;1040117;28;20013;-53
2021/04/30 01:08:44;;;;;;;14.53;10.10;;;;;;;9.03;100.00;95430.38;1036618;28;20033;-51
2021/04/30 01:09:14;;;;;;;14.20;10.00;;;;;;;9.08;100.00;95432.41;1032445;28;20046;-51
2021/04/30 01:09:45;;;;;;;12.83;10.63;;;;;;;9.11;100.00;95426.75;1032572;28;20026;-52
2021/04/30 01:10:15;;;;;;;13.90;11.27;;;;;;;9.10;100.00;95433.00;1032498;28;20117;-52
2021/04/30 01:10:46;;;;;;;14.93;10.70;;;;;;;9.11;100.00;95426.75;1036717;28;20152;-51
2021/04/30 01:11:16;;;;;;;12.43;10.53;;;;;;;9.13;100.00;95424.72;1036974;28;20072;-51
2021/04/30 01:11:48;;;;;;;14.80;11.37;;;;;;;9.16;100.00;95434.81;1036924;28;20040;-53
2021/04/30 01:12:18;;;;;;;16.88;11.40;;;;;;;9.15;100.00;95430.56;1036893;28;20017;-52
2021/04/30 01:12:49;;;;;;;16.67;10.60;;;;;;;9.18;100.00;95426.72;1032639;28;20019;-52
2021/04/30 01:13:19;;;;;;;13.27;10.33;;;;;;;9.17;100.00;95428.56;1036548;28;20093;-52
2021/04/30 01:13:50;;;;;;;14.77;10.57;;;;;;;9.17;100.00;95431.19;1036596;28;20480;-52
2021/04/30 01:14:20;;;;;;;12.73;10.43;;;;;;;9.20;100.00;95430.78;1036503;28;20022;-52
2021/04/30 01:14:51;;;;;;;12.13;10.47;;;;;;;9.17;100.00;95431.19;1040798;28;20068;-53
2021/04/30 01:15:21;;;;;;;14.00;10.70;;;;;;;9.20;100.00;95433.41;1040859;28;20487;-51
2021/04/30 01:15:52;;;;;;;15.07;10.83;;;;;;;9.14;100.00;95430.75;1041059;28;20064;-52
2021/04/30 01:16:22;;;;;;;15.90;11.00;;;;;;;9.03;100.00;95430.38;1040744;28;20085;-54
2021/04/30 01:16:53;;;;;;;13.43;11.13;;;;;;;9.00;100.00;95432.59;1041383;28;20026;-52
2021/04/30 01:17:23;;;;;;;13.93;10.97;;;;;;;9.00;100.00;95435.22;1041355;28;20025;-51
2021/04/30 01:17:54;;;;;;;15.37;11.10;;;;;;;9.03;100.00;95430.38;1040783;28;20467;-53
2021/04/30 01:18:24;;;;;;;12.63;10.17;;;;;;;9.07;100.00;95430.78;1036749;28;20484;-52
2021/04/30 01:18:54;;;;;;;12.57;10.43;;;;;;;9.07;100.00;95433.41;1036556;28;20472;-52
2021/04/30 01:19:25;;;;;;;17.00;11.57;;;;;;;9.10;100.00;95429.56;1032561;28;20456;-52
2021/04/30 01:19:57;;;;;;;15.90;11.00;;;;;;;9.11;100.00;95431.16;1036804;28;20116;-53
2021/04/30 01:20:27;;;;;;;14.57;11.07;;;;;;;9.11;100.00;95425.91;1036666;28;20040;-52
2021/04/30 01:20:58;;;;;;;16.67;11.23;;;;;;;9.11;100.00;95431.16;1036816;28;20041;-51
2021/04/30 01:21:28;;;;;;;17.33;11.60;;;;;;;9.11;100.00;95429.38;1041120;28;20111;-51
2021/04/30 01:21:59;;;;;;;12.67;10.63;;;;;;;9.15;100.00;95430.56;1036814;28;20029;-53
2021/04/30 01:22:39;;;;;;;17.10;11.10;;;;;;;9.07;100.00;95425.53;1040845;28;20055;-51
2021/04/30 01:23:10;;;;;;;;;;;;;;;9.08;100.00;95424.53;1041475;28;20387;-52
2021/04/30 01:23:51;;;;;;;15.50;11.13;;;;;;;9.04;100.00;95433.81;1040901;28;19909;-50
2021/04/30 01:24:22;;;;;;;14.10;11.07;;;;;;;9.05;100.00;95428.34;1040981;28;20162;-51
2021/04/30 01:24:52;;;;;;;16.35;11.50;;;;;;;9.01;100.00;95421.09;1036569;28;20500;-54
2021/04/30 01:25:24;;;;;;;14.20;11.50;;;;;;;8.99;100.00;95425.75;1036794;28;20021;-54
2021/04/30 01:25:55;;;;;;;15.63;10.93;;;;;;;9.03;100.00;95426.94;1037000;28;20352;-52
2021/04/30 01:26:25;;;;;;;17.40;11.57;;;;;;;9.06;100.00;95423.91;1040651;28;20021;-55
2021/04/30 01:26:56;;;;;;;16.87;11.47;;;;;;;9.06;100.00;95434.41;1041082;28;20060;-53
2021/04/30 01:27:26;;;;;;;14.47;11.17;;;;;;;9.08;100.00;95432.41;1041120;28;20108;-55
2021/04/30 01:27:57;;;;;;;13.83;11.63;;;;;;;8.99;100.00;95438.88;1040927;28;20298;-52
2021/04/30 01:28:27;;;;;;;14.07;11.50;;;;;;;8.94;100.00;95430.78;1036753;28;20041;-54
2021/04/30 01:28:58;;;;;;;16.30;12.20;;;;;;;8.93;100.00;95424.72;1040598;28;20021;-53
2021/04/30 01:29:28;;;;;;;15.60;12.13;;;;;;;8.97;100.00;95430.38;1040648;28;20104;-54
2021/04/30 01:29:59;;;;;;;14.53;11.00;;;;;;;8.99;100.00;95438.88;1041028;28;20126;-55
2021/04/30 01:30:31;;;;;;;14.63;11.33;;;;;;;9.02;100.00;95435.84;1041386;28;20062;-53
2021/04/30 01:31:01;;;;;;;15.38;11.32;;;;;;;9.07;100.00;95436.03;1041123;28;20524;-53
2021/04/30 01:31:32;;;;;;;14.73;12.03;;;;;;;9.00;100.00;95437.84;1041061;28;20009;-54
2021/04/30 01:32:03;;;;;;;14.48;10.55;;;;;;;8.97;100.00;95438.25;1041219;28;20049;-54
2021/04/30 01:32:34;;;;;;;17.33;11.50;;;;;;;8.89;100.00;95434.00;1041415;28;20024;-53
2021/04/30 01:33:14;;;;;;;13.23;11.13;;;;;;;8.85;100.00;95436.22;1041210;28;20032;-54
2021/04/30 01:33:52;;;;;;;13.10;11.23;;;;;;;8.84;100.00;95431.97;1041071;28;20017;-55
2021/04/30 01:34:23;;;;;;;16.85;11.23;;;;;;;8.85;100.00;95438.84;1032276;28;20014;-52
2021/04/30 01:34:53;;;;;;;15.73;10.60;;;;;;;8.85;100.00;95435.41;1032424;28;20366;-52
2021/04/30 01:35:28;;;;;;;14.40;11.37;;;;;;;8.83;100.00;95435.59;1033589;28;20105;-55
2021/04/30 01:35:58;;;;;;;13.18;10.15;;;;;;;8.80;100.00;95435.22;1034613;28;20073;-53
2021/04/30 01:36:30;;;;;;;15.67;10.67;;;;;;;8.91;100.00;95437.22;1040548;28;20009;-54
2021/04/30 01:37:01;;;;;;;12.57;10.77;;;;;;;8.90;100.00;95435.63;1040521;28;20092;-55
2021/04/30 01:37:31;;;;;;;14.67;10.43;;;;;;;8.91;100.00;95441.69;1040765;28;20353;-53
2021/04/30 01:38:02;;;;;;;13.90;10.97;;;;;;;8.90;100.00;95443.50;1040886;28;20057;-56
2021/04/30 01:38:33;;;;;;;12.23;10.70;;;;;;;8.86;100.00;95440.44;1040889;28;20064;-53
2021/04/30 01:39:08;;;;;;;12.47;10.83;;;;;;;8.81;100.00;95437.63;1040948;28;20041;-53
2021/04/30 01:39:38;;;;;;;14.90;11.23;;;;;;;8.82;100.00;95438.44;1037530;28;20022;-52
2021/04/30 01:40:16;;;;;;;15.47;10.53;;;;;;;8.78;100.00;95445.09;1040995;28;20020;-52
2021/04/30 01:40:47;;;;;;;14.05;11.00;;;;;;;8.75;100.00;95441.06;1040609;28;20117;-55
2021/04/30 01:41:21;;;;;;;16.20;11.30;;;;;;;8.75;100.00;95442.88;1040643;28;20013;-56
2021/04/30 01:41:51;;;;;;;12.05;10.05;;;;;;;8.76;100.00;95440.06;1040811;28;20364;-56
2021/04/30 01:42:22;;;;;;;19.50;10.33;;;;;;;8.80;100.00;95436.00;1040915;28;20079;-52
2021/04/30 01:43:08;;;;;;;13.77;10.77;;;;;;;8.78;100.00;95440.66;1040643;28;20467;-55
2021/04/30 01:43:38;;;;;;;13.02;10.32;;;;;;;8.80;100.00;95441.25;1036459;28;20092;-53
2021/04/30 01:44:12;;;;;;;14.00;11.07;;;;;;;8.82;100.00;95441.88;1036387;28;20068;-55
2021/04/30 01:44:43;;;;;;;14.90;11.10;;;;;;;8.81;100.00;95447.34;1039222;28;20098;-52
2021/04/30 01:45:13;;;;;;;14.27;10.53;;;;;;;8.86;100.00;95440.44;1037304;28;20176;-51
2021/04/30 01:45:56;;;;;;;13.80;10.73;;;;;;;8.85;100.00;95438.84;1036563;28;20168;-55
2021/04/30 01:46:26;;;;;;;13.25;10.43;;;;;;;8.89;100.00;95442.66;1036419;28;20093;-55
2021/04/30 01:46:58;;;;;;;15.03;10.40;;;;;;;8.90;100.00;95433.00;1038212;28;20420;-55
2021/04/30 01:47:28;;;;;;;17.60;10.70;;;;;;;8.89;100.00;95437.41;1040553;28;20017;-54
2021/04/30 01:47:59;;;;;;;15.97;10.57;;;;;;;8.95;100.00;95437.66;1040785;28;20017;-55
2021/04/30 01:48:30;;;;;;;14.53;10.87;;;;;;;8.93;100.00;95435.22;1040781;28;20018;-54
2021/04/30 01:49:00;;;;;;;14.90;10.63;;;;;;;8.94;100.00;95436.03;1040463;28;20417;-52
2021/04/30 01:49:31;;;;;;;12.93;10.53;;;;;;;8.95;100.00;95435.81;1040558;28;20014;-54
2021/04/30 01:50:01;;;;;;;15.53;11.07;;;;;;;9.00;100.00;95430.78;1040389;28;20017;-55
2021/04/30 01:50:32;;;;;;;11.97;10.27;;;;;;;9.04;100.00;95439.06;1040687;28;20036;-54
2021/04/30 01:51:03;;;;;;;17.90;11.00;;;;;;;9.03;100.00;95435.63;1040841;28;20116;-52
2021/04/30 01:51:35;;;;;;;12.25;10.30;;;;;;;9.00;100.00;95432.59;1040885;28;20364;-52
2021/04/30 01:52:06;;;;;;;12.13;10.25;;;;;;;8.97;100.00;95436.41;1040488;28;20446;-55
2021/04/30 01:52:36;;;;;;;14.23;10.20;;;;;;;8.99;100.00;95433.63;1036456;28;20022;-53
2021/04/30 01:53:07;;;;;;;13.17;10.37;;;;;;;8.92;100.00;95433.59;1036611;28;20392;-53
2021/04/30 01:53:38;;;;;;;16.02;10.93;;;;;;;8.89;100.00;95445.28;1037074;28;20021;-52
2021/04/30 01:54:08;;;;;;;14.47;10.40;;;;;;;8.90;100.00;95435.63;1040409;28;20348;-53
2021/04/30 01:54:47;;;;;;;14.27;10.47;;;;;;;8.88;100.00;95435.00;1036575;28;20046;-52
2021/04/30 01:55:17;;;;;;;14.50;10.57;;;;;;;8.87;100.00;95428.94;1033565;28;20485;-52
2021/04/30 01:55:48;;;;;;;14.50;10.27;;;;;;;8.85;100.00;95436.22;1036632;28;20072;-53
2021/04/30 01:56:18;;;;;;;14.23;10.43;;;;;;;8.83;100.00;95437.44;1033694;28;20018;-52
2021/04/30 01:56:50;;;;;;;16.07;10.70;;;;;;;8.82;100.00;95441.88;1037690;28;20041;-52
2021/04/30 01:57:20;;;;;;;14.35;10.52;;;;;;;8.85;100.00;95441.47;1040529;28;20045;-53
2021/04/30 01:57:51;;;;;;;13.43;10.47;;;;;;;8.85;100.00;95449.34;1040583;28;20436;-52
2021/04/30 01:58:21;;;;;;;13.43;10.73;;;;;;;8.83;100.00;95446.09;1040733;28;20014;-53
2021/04/30 01:58:51;;;;;;;13.83;9.80;;;;;;;8.83;100.00;95448.72;1040724;28;20112;-55
2021/04/30 01:59:22;;;;;;;15.03;10.53;;;;;;;8.72;100.00;95459.81;1040756;28;20013;-52
2021/04/30 01:59:52;;;;;;;14.77;10.70;;;;;;;8.73;100.00;95453.59;1040888;28;20108;-55
2021/04/30 02:00:24;;;;;;;15.23;11.30;;;;;;;8.71;100.00;95458.19;1040678;28;20013;-51
2021/04/30 02:00:55;;;;;;;18.10;10.63;;;;;;;8.75;100.00;95454.19;1040926;28;20014;-52
2021/04/30 02:01:26;;;;;;;13.32;10.75;;;;;;;8.71;100.00;95459.03;1041106;28;20022;-54
2021/04/30 02:01:58;;;;;;;12.53;10.53;;;;;;;8.76;100.00;95449.72;1040802;28;20525;-52
2021/04/30 02:02:43;;;;;;;13.85;10.40;;;;;;;8.76;100.00;95447.94;1040783;28;20018;-53
2021/04/30 02:03:13;;;;;;;15.93;10.05;;;;;;;8.75;100.00;95448.94;1040930;28;20022;-54
2021/04/30 02:03:44;;;;;;;13.73;11.30;;;;;;;8.78;100.00;95451.16;1040482;28;20349;-54
2021/04/30 02:04:14;;;;;;;13.13;10.67;;;;;;;8.76;100.00;95455.81;1036210;28;20101;-53
2021/04/30 02:04:45;;;;;;;12.80;10.47;;;;;;;8.78;100.00;95455.59;1036352;28;20013;-53
2021/04/30 02:05:15;;;;;;;13.27;10.03;;;;;;;8.79;100.00;95454.56;1036485;28;20338;-53
2021/04/30 02:05:46;;;;;;;13.53;10.90;;;;;;;8.77;100.00;95446.91;1040470;28;20021;-54
2021/04/30 02:06:16;;;;;;;13.77;10.67;;;;;;;8.79;100.00;95449.34;1040196;28;20464;-53
2021/04/30 02:06:47;;;;;;;14.43;9.83;;;;;;;8.80;100.00;95453.56;1040397;28;20017;-54
2021/04/30 02:07:17;;;;;;;13.80;11.10;;;;;;;8.79;100.00;95450.16;1040565;28;20040;-55
2021/04/30 02:07:48;;;;;;;15.17;11.23;;;;;;;8.77;100.00;95453.97;1040465;28;20022;-52
2021/04/30 02:08:19;;;;;;;13.60;10.50;;;;;;;8.76;100.00;95447.94;1041077;28;20013;-52
2021/04/30 02:08:50;;;;;;;17.17;10.70;;;;;;;8.72;100.00;95449.34;1040688;28;20028;-53
2021/04/30 02:09:21;;;;;;;13.75;10.93;;;;;;;8.77;100.00;95449.53;1040475;28;20386;-53
2021/04/30 02:09:51;;;;;;;15.10;11.07;;;;;;;8.77;100.00;95444.28;1040461;28;20017;-55
2021/04/30 02:10:23;;;;;;;12.93;10.63;;;;;;;8.74;100.00;95443.88;1036544;28;20029;-55
2021/04/30 02:10:54;;;;;;;12.57;10.88;;;;;;;8.66;100.00;95450.13;1036336;28;20018;-53
2021/04/30 02:11:24;;;;;;;12.27;10.43;;;;;;;8.69;100.00;95442.66;1036345;28;20113;-55
2021/04/30 02:11:55;;;;;;;13.13;10.53;;;;;;;8.65;100.00;95451.94;1036593;28;20018;-55
2021/04/30 02:12:25;;;;;;;14.73;11.67;;;;;;;8.60;100.00;95445.69;1040486;28;20025;-55
2021/04/30 02:12:56;;;;;;;13.53;10.83;;;;;;;8.63;100.00;95455.78;1040655;28;20052;-53
2021/04/30 02:13:27;;;;;;;13.90;10.83;;;;;;;8.65;100.00;95456.38;1040859;28;20048;-56
2021/04/30 02:13:57;;;;;;;13.17;11.00;;;;;;;8.63;100.00;95440.84;1041222;28;20013;-51
2021/04/30 02:14:27;;;;;;;13.97;11.23;;;;;;;8.67;100.00;95455.19;1041028;28;20013;-54
2021/04/30 02:14:58;;;;;;;16.47;11.57;;;;;;;8.60;100.00;95451.72;1040392;28;20475;-55
2021/04/30 02:15:33;;;;;;;13.53;11.03;;;;;;;8.56;100.00;95450.50;1040444;28;20068;-55
2021/04/30 02:16:04;;;;;;;12.45;11.00;;;;;;;8.50;100.00;95454.75;1032176;28;20146;-55
2021/04/30 02:16:34;;;;;;;14.33;11.53;;;;;;;8.57;100.00;95451.31;1032975;28;20092;-55
2021/04/30 02:17:05;;;;;;;17.63;12.40;;;;;;;8.54;100.00;95448.06;1036257;28;20092;-54
2021/04/30 02:17:36;;;;;;;15.07;11.40;;;;;;;8.57;100.00;95451.31;1036595;28;20037;-55
2021/04/30 02:18:07;;;;;;;16.45;11.63;;;;;;;8.59;100.00;95449.31;1040919;28;20364;-53
2021/04/30 02:18:37;;;;;;;17.10;11.83;;;;;;;8.51;100.00;95447.69;1040962;28;20025;-52
2021/04/30 02:19:08;;;;;;;15.17;11.93;;;;;;;8.47;100.00;95446.44;1040883;28;20522;-54
2021/04/30 02:19:38;;;;;;;13.50;11.57;;;;;;;8.47;100.00;95449.06;1040624;28;20010;-55
2021/04/30 02:20:09;;;;;;;17.17;12.70;;;;;;;8.53;100.00;95446.47;1040724;28;20052;-54
2021/04/30 02:20:40;;;;;;;15.32;12.52;;;;;;;8.53;100.00;95446.47;1040758;28;20018;-55
2021/04/30 02:21:11;;;;;;;13.20;11.80;;;;;;;8.53;100.00;95446.47;1040534;28;20393;-54
2021/04/30 02:21:41;;;;;;;13.83;11.43;;;;;;;8.56;100.00;95442.63;1041290;28;20018;-54
2021/04/30 02:22:12;;;;;;;16.07;11.80;;;;;;;8.56;100.00;95447.88;1040842;28;20028;-54
2021/04/30 02:22:42;;;;;;;15.73;12.03;;;;;;;8.61;100.00;95444.66;1040759;28;20087;-53
2021/04/30 02:23:13;;;;;;;17.03;11.23;;;;;;;8.64;100.00;95446.88;1040712;28;20028;-52
2021/04/30 02:23:43;;;;;;;13.80;12.07;;;;;;;8.66;100.00;95445.69;1041382;28;20017;-52